Time;durP1;ratioP1;P1;durP2;ratioP2;P2;SDS_P1;SDS_P2;PMS_P1;PMS_P2;Temp;Humidity;BMP_temperature;BMP_pressure;BME280_temperature;BME280_humidity;BME280_pressure;Samples;Min_cycle;Max_cycle;Signal;HPM_P1;HPM_P2
2021/07/13 00:01:26;;;;;;;56.75;33.70;;;;;;;17.58;85.69;101116.75;5022426;28;20060;-48
2021/07/13 00:03:53;;;;;;;56.45;32.75;;;;;;;17.53;85.50;101108.91;5026040;28;20100;-49
2021/07/13 00:06:19;;;;;;;57.05;33.80;;;;;;;17.49;85.41;101107.19;5023631;28;20037;-49
2021/07/13 00:08:44;;;;;;;53.22;31.92;;;;;;;17.44;85.66;101112.50;5026738;28;20112;-50
2021/07/13 00:11:10;;;;;;;55.65;34.70;;;;;;;17.39;85.69;101110.81;5023116;28;20033;-49
2021/07/13 00:13:35;;;;;;;57.13;34.10;;;;;;;17.34;85.68;101113.50;5025794;28;20044;-50
2021/07/13 00:16:01;;;;;;;58.97;34.60;;;;;;;17.27;85.94;101119.72;5024165;28;20334;-49
2021/07/13 00:18:26;;;;;;;50.28;31.85;;;;;;;17.21;85.89;101125.03;5022608;28;20029;-48
2021/07/13 00:20:51;;;;;;;60.30;35.60;;;;;;;17.19;85.89;101125.97;5025784;28;20500;-54
2021/07/13 00:23:17;;;;;;;57.60;34.20;;;;;;;17.16;85.71;101136.50;5022582;28;20151;-49
2021/07/13 00:25:42;;;;;;;54.75;32.65;;;;;;;17.14;85.94;101136.53;5022789;28;20037;-52
2021/07/13 00:28:07;;;;;;;55.92;33.25;;;;;;;17.09;85.55;101140.97;5010946;28;20417;-50
2021/07/13 00:30:33;;;;;;;54.25;34.13;;;;;;;16.97;86.12;101136.69;5026207;28;20965;-49
2021/07/13 00:32:58;;;;;;;57.10;33.80;;;;;;;17.03;86.06;101134.00;5027220;28;20492;-50
2021/07/13 00:35:24;;;;;;;55.80;32.75;;;;;;;16.98;85.86;101127.03;5021213;28;20040;-47
2021/07/13 00:37:49;;;;;;;56.95;32.00;;;;;;;16.87;85.85;101123.63;5023222;28;20040;-50
2021/07/13 00:40:20;;;;;;;57.13;33.15;;;;;;;16.77;86.16;101129.84;5024832;28;20025;-48
2021/07/13 00:42:47;;;;;;;70.57;36.53;;;;;;;16.62;86.85;101129.06;5024745;28;20052;-48
2021/07/13 00:45:13;;;;;;;61.83;34.58;;;;;;;16.57;87.23;101122.06;5024450;28;20075;-47
2021/07/13 00:47:38;;;;;;;60.22;34.80;;;;;;;16.51;87.53;101120.34;5022558;28;20132;-47
2021/07/13 00:50:04;;;;;;;59.30;32.20;;;;;;;16.49;87.23;101127.38;5025526;28;20529;-49
2021/07/13 00:52:30;;;;;;;56.72;31.17;;;;;;;16.43;87.38;101124.78;5021379;28;20041;-51
2021/07/13 00:54:56;;;;;;;58.55;34.15;;;;;;;16.42;87.50;101132.69;5021400;28;20562;-52
2021/07/13 00:57:21;;;;;;;58.47;32.17;;;;;;;16.43;87.46;101129.16;5019812;28;20552;-47
2021/07/13 00:59:47;;;;;;;60.80;33.65;;;;;;;16.39;87.29;101133.59;5020408;28;20028;-49
2021/07/13 01:02:14;;;;;;;66.82;35.83;;;;;;;16.33;87.59;101138.88;5019372;28;20032;-50
2021/07/13 01:04:48;;;;;;;57.00;30.17;;;;;;;16.30;87.78;101138.88;5021801;28;20041;-51
2021/07/13 01:07:41;;;;;;;58.17;33.45;;;;;;;16.28;87.71;101145.06;5026088;28;20086;-50
2021/07/13 01:10:10;;;;;;;56.63;32.88;;;;;;;16.24;87.79;101142.44;5025441;28;20116;-49
2021/07/13 01:12:57;;;;;;;53.53;31.95;;;;;;;16.21;87.89;101142.47;5019052;28;20065;-52
2021/07/13 01:15:22;;;;;;;63.03;35.15;;;;;;;16.21;87.73;101153.00;5022183;28;20270;-50
2021/07/13 01:18:24;;;;;;;63.13;34.58;;;;;;;16.25;87.76;101151.19;5009431;28;20028;-49
2021/07/13 01:21:27;;;;;;;57.40;32.17;;;;;;;16.20;87.77;101150.34;4964286;28;20069;-52
2021/07/13 01:24:11;;;;;;;57.20;32.70;;;;;;;16.18;87.91;101139.84;5025883;28;20033;-52
2021/07/13 01:26:42;;;;;;;50.55;30.15;;;;;;;16.21;87.76;101142.47;5024219;28;20165;-50
2021/07/13 01:29:15;;;;;;;54.10;33.58;;;;;;;16.20;87.56;101139.84;5023874;28;20033;-50
2021/07/13 01:31:42;;;;;;;60.95;34.72;;;;;;;16.18;87.54;101139.84;5019594;28;20094;-51
2021/07/13 01:34:17;;;;;;;57.15;33.53;;;;;;;16.17;87.59;101143.34;5024255;28;20125;-49
2021/07/13 01:36:47;;;;;;;55.85;32.55;;;;;;;16.13;87.75;101146.00;5008170;28;20029;-49
2021/07/13 01:39:14;;;;;;;59.40;32.90;;;;;;;16.14;87.82;101147.75;5011663;28;20037;-54
2021/07/13 01:41:40;;;;;;;62.13;34.47;;;;;;;16.14;87.72;101147.75;5006454;28;20029;-48
2021/07/13 01:44:08;;;;;;;60.10;34.17;;;;;;;16.12;87.85;101142.50;4999495;28;20053;-54
2021/07/13 01:46:34;;;;;;;60.25;33.75;;;;;;;16.11;87.72;101138.13;5006728;28;20060;-48
2021/07/13 01:49:01;;;;;;;62.58;33.78;;;;;;;16.15;88.17;101134.59;5024844;28;20037;-49
2021/07/13 01:51:27;;;;;;;66.80;37.20;;;;;;;16.18;88.00;101131.06;5024403;28;20405;-53
2021/07/13 01:53:53;;;;;;;69.68;37.50;;;;;;;16.21;88.20;101134.56;5019660;28;20707;-49
2021/07/13 01:56:20;;;;;;;78.75;40.20;;;;;;;16.27;88.38;101132.78;5024389;28;20214;-49
2021/07/13 01:58:45;;;;;;;77.97;39.13;;;;;;;16.35;88.54;101130.97;5003685;28;20080;-51
2021/07/13 02:01:13;;;;;;;73.43;37.88;;;;;;;16.46;88.62;101137.06;5021239;28;20118;-52
2021/07/13 02:03:39;;;;;;;80.82;39.72;;;;;;;16.53;88.52;101126.44;5020753;28;20352;-52
2021/07/13 02:06:06;;;;;;;70.18;38.83;;;;;;;16.65;88.62;101151.00;5023073;28;20790;-51
2021/07/13 02:08:35;;;;;;;66.25;36.80;;;;;;;16.74;88.27;101138.63;5025063;28;20393;-49
2021/07/13 02:11:00;;;;;;;75.90;38.70;;;;;;;16.80;88.58;101141.22;5011313;28;20153;-50
2021/07/13 02:13:26;;;;;;;74.43;38.33;;;;;;;16.87;88.42;101136.78;5025983;28;20120;-51
2021/07/13 02:15:51;;;;;;;71.18;38.17;;;;;;;16.91;88.44;101138.50;5006422;28;20116;-50
2021/07/13 02:18:16;;;;;;;73.95;38.70;;;;;;;16.93;88.07;101145.50;5023733;28;20142;-48
2021/07/13 02:20:43;;;;;;;79.20;40.47;;;;;;;16.96;88.18;101134.06;5021790;28;21128;-51
2021/07/13 02:23:09;;;;;;;72.22;37.65;;;;;;;16.97;88.20;101135.81;5022593;28;20047;-50
2021/07/13 02:25:34;;;;;;;76.82;39.55;;;;;;;17.00;88.20;101130.53;5023254;28;20028;-48
2021/07/13 02:28:25;;;;;;;68.70;37.22;;;;;;;17.04;88.19;101134.88;5019618;28;20049;-50
2021/07/13 02:30:57;;;;;;;71.13;37.63;;;;;;;17.10;88.15;101126.03;5023348;28;20147;-48
2021/07/13 02:33:29;;;;;;;83.55;41.38;;;;;;;17.13;88.37;101121.63;5003446;28;20439;-50
2021/07/13 02:35:56;;;;;;;84.18;40.70;;;;;;;17.18;88.67;101119.81;5020985;28;20398;-52
2021/07/13 02:38:23;;;;;;;83.55;41.85;;;;;;;17.36;87.96;101126.66;5004587;28;20197;-49
2021/07/13 02:40:50;;;;;;;81.28;40.05;;;;;;;17.27;88.26;101119.72;5005164;28;20037;-49
2021/07/13 02:43:16;;;;;;;90.13;42.97;;;;;;;17.30;88.36;101119.69;5020365;28;20032;-48
2021/07/13 02:45:42;;;;;;;90.60;43.08;;;;;;;17.30;88.32;101114.44;5020582;28;20827;-47
2021/07/13 02:48:09;;;;;;;135.02;54.35;;;;;;;17.38;88.55;101115.19;4999872;28;20028;-52
2021/07/13 02:50:34;;;;;;;153.27;57.65;;;;;;;17.48;89.27;101107.19;4996794;28;20064;-51
2021/07/13 02:53:02;;;;;;;147.15;55.70;;;;;;;17.63;89.01;101114.94;5005270;28;20913;-49
2021/07/13 02:55:30;;;;;;;206.38;68.40;;;;;;;17.79;88.98;101112.13;5020338;28;20040;-50
2021/07/13 02:57:57;;;;;;;213.80;70.47;;;;;;;17.79;88.90;101112.13;5008348;28;20017;-48
2021/07/13 03:00:23;;;;;;;265.70;81.65;;;;;;;17.82;89.34;101113.84;5019482;28;20489;-48
2021/07/13 03:02:49;;;;;;;257.92;81.07;;;;;;;17.91;89.29;101116.38;5019979;28;20116;-52
2021/07/13 03:05:19;;;;;;;256.33;77.30;;;;;;;17.94;89.62;101111.06;5010874;28;20078;-52
2021/07/13 03:07:47;;;;;;;295.17;87.60;;;;;;;17.98;89.45;101110.13;5019377;28;20488;-51
2021/07/13 03:10:12;;;;;;;273.48;82.72;;;;;;;17.99;89.58;101111.84;5003840;28;20026;-50
2021/07/13 03:12:38;;;;;;;288.17;86.82;;;;;;;18.03;89.45;101115.34;5021688;28;20040;-49
2021/07/13 03:15:05;;;;;;;272.45;83.68;;;;;;;18.04;89.61;101112.69;5019112;28;20025;-51
2021/07/13 03:17:31;;;;;;;272.55;84.53;;;;;;;18.07;89.51;101109.13;5020661;28;20342;-49
2021/07/13 03:19:56;;;;;;;264.45;84.25;;;;;;;18.09;89.41;101108.22;5020267;28;20148;-53
2021/07/13 03:22:27;;;;;;;252.80;82.65;;;;;;;18.11;89.13;101116.13;5021318;28;20316;-49
2021/07/13 03:24:52;;;;;;;249.35;80.72;;;;;;;18.13;88.95;101106.41;5003760;28;20079;-49
2021/07/13 03:27:20;;;;;;;250.65;82.97;;;;;;;18.16;89.21;101111.66;5018255;28;20138;-51
2021/07/13 03:29:47;;;;;;;237.38;78.43;;;;;;;18.17;88.89;101105.50;5025461;28;20033;-53
2021/07/13 03:32:15;;;;;;;227.40;76.32;;;;;;;18.17;88.77;101097.56;5024830;28;20037;-51
2021/07/13 03:34:41;;;;;;;239.73;79.10;;;;;;;18.13;88.63;101104.63;5013636;28;20021;-47
2021/07/13 03:37:07;;;;;;;241.55;81.00;;;;;;;18.10;88.81;101107.34;5005603;28;20567;-50
2021/07/13 03:39:32;;;;;;;231.05;76.35;;;;;;;18.09;88.91;101112.63;5019901;28;20128;-50
2021/07/13 03:41:58;;;;;;;245.27;79.50;;;;;;;18.09;88.93;101117.91;5009099;28;20134;-47
2021/07/13 03:44:23;;;;;;;231.77;77.55;;;;;;;18.09;88.77;101123.19;5007326;28;20040;-52
2021/07/13 03:46:49;;;;;;;238.63;78.88;;;;;;;18.08;88.77;101121.44;5004989;28;20032;-48
2021/07/13 03:49:14;;;;;;;227.13;79.00;;;;;;;18.07;88.74;101115.28;5026727;28;20025;-49
2021/07/13 03:51:42;;;;;;;232.35;80.13;;;;;;;18.10;88.88;101114.38;5019967;28;20458;-48
2021/07/13 03:54:10;;;;;;;229.65;75.90;;;;;;;18.12;88.66;101115.22;5026750;28;20579;-48
2021/07/13 03:56:35;;;;;;;216.60;75.57;;;;;;;18.12;88.74;101116.09;5022137;28;20017;-48
2021/07/13 03:59:01;;;;;;;208.10;75.13;;;;;;;18.15;88.53;101115.19;5011212;28;20070;-48
2021/07/13 04:01:26;;;;;;;206.68;74.70;;;;;;;18.16;88.59;101120.44;5026039;28;20041;-51
2021/07/13 04:03:52;;;;;;;196.88;73.90;;;;;;;18.17;88.48;101116.91;5024218;28;20166;-52
2021/07/13 04:06:17;;;;;;;194.20;72.55;;;;;;;18.21;88.27;101115.97;5029250;28;20029;-50
2021/07/13 04:08:43;;;;;;;180.30;68.95;;;;;;;18.23;88.23;101123.88;5005617;28;20017;-50
2021/07/13 04:11:08;;;;;;;175.20;67.70;;;;;;;18.37;87.48;101126.28;5008883;28;20548;-52
2021/07/13 04:13:33;;;;;;;166.85;65.22;;;;;;;18.38;87.49;101125.41;5017912;28;20025;-53
2021/07/13 04:15:59;;;;;;;166.65;64.50;;;;;;;18.43;87.08;101120.91;5025876;28;20608;-47
2021/07/13 04:18:24;;;;;;;154.70;62.90;;;;;;;18.39;86.95;101128.03;5003633;28;20108;-50
2021/07/13 04:20:50;;;;;;;155.65;61.88;;;;;;;18.35;87.30;101142.19;5026771;28;20251;-49
2021/07/13 04:23:16;;;;;;;151.07;60.50;;;;;;;18.35;87.35;101139.53;5011151;28;20522;-46
2021/07/13 04:25:42;;;;;;;149.70;59.85;;;;;;;18.39;87.19;101137.72;5018569;28;20029;-47
2021/07/13 04:28:07;;;;;;;135.50;57.22;;;;;;;18.34;87.07;101135.16;5024425;28;20665;-48
2021/07/13 04:30:33;;;;;;;131.55;54.97;;;;;;;18.40;86.77;101145.63;5020089;28;20278;-48
2021/07/13 04:32:58;;;;;;;130.68;56.92;;;;;;;18.41;86.69;101139.44;5021990;28;20080;-52
2021/07/13 04:35:23;;;;;;;136.48;56.13;;;;;;;18.42;86.97;101149.09;5022197;28;20472;-48
2021/07/13 04:37:49;;;;;;;142.00;56.55;;;;;;;18.41;87.02;101155.28;5021371;28;20151;-52
2021/07/13 04:40:14;;;;;;;123.28;54.33;;;;;;;18.41;86.66;101150.00;5024660;28;20648;-53
2021/07/13 04:42:41;;;;;;;119.43;52.72;;;;;;;18.42;86.21;101157.00;5022189;28;20056;-51
2021/07/13 04:45:07;;;;;;;114.50;52.35;;;;;;;18.50;86.05;101156.91;5022552;28;20033;-49
2021/07/13 04:47:32;;;;;;;115.53;52.25;;;;;;;18.42;86.06;101157.00;5024081;28;20025;-52
2021/07/13 04:49:58;;;;;;;115.63;52.53;;;;;;;18.39;86.22;101150.91;5020550;28;20220;-48
2021/07/13 04:52:23;;;;;;;106.63;48.67;;;;;;;18.50;85.86;101148.97;5024342;28;20036;-49
2021/07/13 04:54:48;;;;;;;110.88;50.92;;;;;;;18.64;85.22;101150.56;5021662;28;20132;-49
2021/07/13 04:57:14;;;;;;;105.03;48.78;;;;;;;18.46;85.67;101158.72;5020255;28;20029;-49
2021/07/13 04:59:39;;;;;;;102.53;47.88;;;;;;;18.46;85.60;101156.09;5023823;28;20473;-52
2021/07/13 05:02:05;;;;;;;99.03;47.70;;;;;;;18.49;85.71;101163.94;5027353;28;20094;-48
2021/07/13 05:04:30;;;;;;;102.53;46.92;;;;;;;18.52;85.36;101158.63;5020570;28;20108;-50
2021/07/13 05:06:55;;;;;;;99.85;46.85;;;;;;;18.50;85.26;101162.19;5026099;28;20544;-53
2021/07/13 05:09:21;;;;;;;102.25;47.17;;;;;;;18.48;85.21;101156.06;5026983;28;20029;-53
2021/07/13 05:11:46;;;;;;;102.72;48.13;;;;;;;18.50;85.41;101165.69;5007607;28;20511;-49
2021/07/13 05:14:11;;;;;;;105.22;48.58;;;;;;;18.49;85.41;101163.94;5024697;28;20104;-50
2021/07/13 05:16:37;;;;;;;101.50;47.47;;;;;;;18.51;85.34;101174.50;5021650;28;20037;-49
2021/07/13 05:19:02;;;;;;;101.47;47.58;;;;;;;18.56;85.14;101175.31;5023750;28;21541;-50
2021/07/13 05:21:28;;;;;;;106.10;49.95;;;;;;;18.57;85.32;101174.44;5021060;28;20032;-49
2021/07/13 05:23:53;;;;;;;100.07;47.80;;;;;;;18.59;85.24;101177.94;5023798;28;20473;-51
2021/07/13 05:26:19;;;;;;;95.47;46.42;;;;;;;18.60;85.22;101177.91;5021365;28;20402;-51
2021/07/13 05:28:48;;;;;;;96.35;45.83;;;;;;;18.67;85.26;101176.03;5007851;28;20492;-50
2021/07/13 05:31:14;;;;;;;87.25;43.10;;;;;;;18.65;84.94;101180.50;5023722;28;20029;-47
2021/07/13 05:33:40;;;;;;;91.75;44.85;;;;;;;18.64;84.64;101184.03;5019085;28;20024;-48
2021/07/13 05:36:05;;;;;;;88.30;43.55;;;;;;;18.64;84.43;101184.03;5023003;28;20153;-54
2021/07/13 05:38:31;;;;;;;90.57;44.10;;;;;;;18.64;84.58;101192.81;5018422;28;20061;-49
2021/07/13 05:40:56;;;;;;;92.85;45.08;;;;;;;18.54;84.83;101188.50;5022809;28;20108;-48
2021/07/13 05:43:21;;;;;;;83.05;41.55;;;;;;;18.61;84.44;101184.06;5022374;28;20032;-52
2021/07/13 05:45:47;;;;;;;88.95;43.53;;;;;;;18.55;84.16;101179.72;5021310;28;20029;-48
2021/07/13 05:48:12;;;;;;;93.00;44.75;;;;;;;18.61;84.36;101178.78;5019894;28;20512;-53
2021/07/13 05:50:38;;;;;;;86.55;41.90;;;;;;;18.65;83.85;101180.50;5009818;28;20036;-48
2021/07/13 05:53:03;;;;;;;86.35;42.47;;;;;;;18.65;84.15;101183.13;5008401;28;20025;-50
2021/07/13 05:55:29;;;;;;;92.05;42.83;;;;;;;18.70;84.06;101191.84;5018188;28;20112;-47
2021/07/13 05:57:54;;;;;;;83.68;41.80;;;;;;;18.63;83.96;101185.78;5022508;28;20043;-47
2021/07/13 06:00:20;;;;;;;80.50;41.35;;;;;;;18.59;83.80;101183.22;5009082;28;20029;-48
2021/07/13 06:02:45;;;;;;;80.85;41.03;;;;;;;18.56;83.80;101185.88;5023090;28;20158;-52
2021/07/13 06:05:11;;;;;;;84.68;42.78;;;;;;;18.60;83.90;101185.81;5025570;28;20110;-48
2021/07/13 06:07:43;;;;;;;88.32;42.22;;;;;;;18.71;84.11;101179.53;5019860;28;20037;-53
2021/07/13 06:10:09;;;;;;;90.90;42.85;;;;;;;18.79;84.01;101188.19;5020525;28;20202;-50
2021/07/13 06:12:34;;;;;;;90.13;42.72;;;;;;;18.86;84.22;101189.84;5019069;28;20344;-50
2021/07/13 06:15:00;;;;;;;82.82;41.85;;;;;;;18.88;83.08;101181.00;5025779;28;20032;-50
2021/07/13 06:17:25;;;;;;;75.95;40.35;;;;;;;18.97;82.87;101182.59;5017840;28;20021;-47
2021/07/13 06:19:51;;;;;;;77.93;40.00;;;;;;;19.01;82.63;101181.69;5023226;28;20264;-51
2021/07/13 06:22:16;;;;;;;77.40;40.33;;;;;;;18.95;82.16;101184.44;5018890;28;20433;-48
2021/07/13 06:24:41;;;;;;;69.80;37.70;;;;;;;19.01;82.39;101179.91;5017688;28;20106;-48
2021/07/13 06:27:07;;;;;;;75.50;39.22;;;;;;;19.09;82.19;101184.22;5025983;28;20112;-48
2021/07/13 06:29:32;;;;;;;77.30;39.17;;;;;;;19.19;81.97;101191.94;5016543;28;20032;-52
2021/07/13 06:31:57;;;;;;;71.72;39.17;;;;;;;19.18;81.43;101184.03;5007883;28;20037;-50
2021/07/13 06:34:23;;;;;;;68.65;38.17;;;;;;;19.15;82.00;101181.47;5016274;28;20033;-49
2021/07/13 06:36:48;;;;;;;72.00;37.88;;;;;;;19.28;81.88;101183.84;5022233;28;20032;-50
2021/07/13 06:39:14;;;;;;;66.10;36.03;;;;;;;19.30;81.30;101187.34;5025522;28;20036;-52
2021/07/13 06:41:39;;;;;;;66.22;36.35;;;;;;;19.37;81.01;101181.06;5022002;28;20069;-51
2021/07/13 06:44:05;;;;;;;64.25;35.53;;;;;;;19.30;80.27;101194.41;5011697;28;21315;-48
2021/07/13 06:46:32;;;;;;;64.35;34.78;;;;;;;19.40;80.53;101199.50;5016492;28;20111;-52
2021/07/13 06:48:57;;;;;;;61.80;34.63;;;;;;;19.49;80.33;101194.97;5005707;28;20537;-50
2021/07/13 06:51:23;;;;;;;54.42;33.50;;;;;;;19.61;80.27;101194.75;5018897;28;20093;-48
2021/07/13 06:53:48;;;;;;;52.13;31.95;;;;;;;19.55;79.37;101197.50;5021694;28;20074;-51
2021/07/13 06:56:15;;;;;;;56.45;33.38;;;;;;;19.55;79.44;101200.16;5020500;28;20467;-51
2021/07/13 06:58:40;;;;;;;52.65;32.85;;;;;;;19.29;79.42;101201.47;5022058;28;20045;-49
2021/07/13 07:01:06;;;;;;;53.45;32.97;;;;;;;19.31;79.42;101204.97;5013626;28;20047;-50
2021/07/13 07:03:31;;;;;;;59.20;35.20;;;;;;;19.21;80.49;101205.16;5023673;28;20133;-48
2021/07/13 07:05:56;;;;;;;58.05;34.15;;;;;;;19.24;80.48;101207.72;5022416;28;20036;-50
2021/07/13 07:08:22;;;;;;;55.83;34.17;;;;;;;19.22;80.72;101202.44;5020325;28;20052;-48
2021/07/13 07:10:47;;;;;;;72.40;37.85;;;;;;;19.20;80.88;101211.31;5019720;28;20045;-50
2021/07/13 07:13:12;;;;;;;77.28;40.08;;;;;;;19.14;81.60;101209.66;5021693;28;20059;-50
2021/07/13 07:15:38;;;;;;;88.25;40.55;;;;;;;18.93;81.85;101212.63;5020594;28;20029;-50
2021/07/13 07:18:03;;;;;;;82.78;41.22;;;;;;;18.85;82.04;101212.75;5021237;28;20736;-52
2021/07/13 07:20:29;;;;;;;82.13;41.00;;;;;;;18.81;82.00;101211.06;5021027;28;20124;-48
2021/07/13 07:22:56;;;;;;;86.45;41.47;;;;;;;18.81;82.46;101211.06;5023569;28;20915;-50
2021/07/13 07:25:21;;;;;;;81.20;40.80;;;;;;;18.93;82.39;101215.28;5016919;28;20021;-50
2021/07/13 07:27:47;;;;;;;83.63;40.78;;;;;;;18.98;81.98;101216.94;5001358;28;20045;-53
2021/07/13 07:30:14;;;;;;;75.57;39.80;;;;;;;19.17;81.64;101212.25;5020778;28;20029;-50
2021/07/13 07:32:40;;;;;;;69.05;37.55;;;;;;;19.16;80.69;101213.13;5016444;28;20128;-54
2021/07/13 07:35:07;;;;;;;69.53;36.60;;;;;;;19.20;79.84;101217.50;5019134;28;20764;-53
2021/07/13 07:37:33;;;;;;;67.32;36.08;;;;;;;19.28;79.89;101218.22;5018425;28;20116;-50
2021/07/13 07:39:58;;;;;;;68.50;34.78;;;;;;;19.34;79.47;101214.59;5005447;28;20097;-53
2021/07/13 07:42:24;;;;;;;64.30;35.95;;;;;;;19.37;79.60;101220.72;5017573;28;20025;-48
2021/07/13 07:44:50;;;;;;;70.85;37.33;;;;;;;19.41;79.95;101221.53;5009514;28;20134;-50
2021/07/13 07:47:15;;;;;;;74.32;38.78;;;;;;;19.32;79.71;101221.69;5017968;28;20437;-51
2021/07/13 07:49:41;;;;;;;75.43;39.90;;;;;;;19.44;79.70;101222.34;5015667;28;20363;-52
2021/07/13 07:52:06;;;;;;;73.13;38.22;;;;;;;19.52;79.69;101226.69;5021022;28;20029;-49
2021/07/13 07:54:32;;;;;;;78.05;39.17;;;;;;;19.61;79.39;101223.84;5018589;28;20084;-50
2021/07/13 07:56:57;;;;;;;72.88;38.45;;;;;;;19.62;79.10;101223.84;5002240;28;20036;-48
2021/07/13 07:59:23;;;;;;;73.97;38.78;;;;;;;19.71;79.58;101231.59;5013454;28;20204;-47
2021/07/13 08:01:48;;;;;;;73.95;38.85;;;;;;;19.70;80.05;101223.69;5021901;28;20037;-48
2021/07/13 08:04:14;;;;;;;66.05;35.22;;;;;;;19.71;78.75;101228.94;5008430;28;20435;-49
2021/07/13 08:06:39;;;;;;;66.22;36.70;;;;;;;19.68;78.98;101228.13;5018619;28;20472;-48
2021/07/13 08:09:07;;;;;;;64.72;34.55;;;;;;;19.72;79.28;101235.09;5021149;28;20107;-50
2021/07/13 08:11:33;;;;;;;61.70;34.63;;;;;;;19.66;78.73;101232.56;5019770;28;20040;-52
2021/07/13 08:14:00;;;;;;;63.65;34.67;;;;;;;19.68;79.04;101228.13;5028035;28;20025;-52
2021/07/13 08:16:26;;;;;;;62.75;35.15;;;;;;;19.69;79.14;101224.59;5024024;28;20094;-50
2021/07/13 08:18:52;;;;;;;54.22;31.73;;;;;;;19.73;78.20;101221.84;5025968;28;20033;-52
2021/07/13 08:21:19;;;;;;;54.85;33.47;;;;;;;19.72;77.95;101228.03;5020691;28;20110;-52
2021/07/13 08:23:45;;;;;;;59.03;34.28;;;;;;;19.57;77.97;101238.03;5024969;28;20025;-47
2021/07/13 08:26:11;;;;;;;60.08;33.95;;;;;;;19.44;78.58;101235.56;5023889;28;20029;-51
2021/07/13 08:28:36;;;;;;;62.70;34.15;;;;;;;19.50;79.52;101249.63;5018212;28;20045;-50
2021/07/13 08:31:01;;;;;;;60.00;33.13;;;;;;;19.43;78.74;101241.75;5022596;28;20143;-51
2021/07/13 08:33:27;;;;;;;58.28;32.40;;;;;;;19.32;78.88;101243.72;5020336;28;20227;-50
2021/07/13 08:35:52;;;;;;;52.53;30.65;;;;;;;19.36;79.09;101240.13;5027512;28;20112;-48
2021/07/13 08:38:18;;;;;;;63.97;34.50;;;;;;;19.41;79.71;101237.38;5007751;28;20474;-51
2021/07/13 08:40:43;;;;;;;60.80;34.17;;;;;;;19.38;78.67;101238.31;5023545;28;20083;-50
2021/07/13 08:43:08;;;;;;;56.20;31.95;;;;;;;19.21;79.48;101239.50;5022236;28;20033;-53
2021/07/13 08:45:34;;;;;;;59.83;32.50;;;;;;;19.07;79.83;101231.78;5024588;28;20021;-50
2021/07/13 08:47:59;;;;;;;56.97;31.65;;;;;;;19.15;79.73;101240.44;5023616;28;20090;-47
2021/07/13 08:50:25;;;;;;;60.42;33.50;;;;;;;19.14;79.82;101235.22;4993107;28;20025;-50
2021/07/13 08:52:50;;;;;;;62.80;34.22;;;;;;;19.15;79.59;101232.53;5027953;28;20033;-51
2021/07/13 08:55:16;;;;;;;60.20;33.25;;;;;;;19.20;79.98;101235.13;5021970;28;20033;-49
2021/07/13 08:57:42;;;;;;;59.40;33.47;;;;;;;19.29;79.24;101238.47;5009410;28;20480;-53
2021/07/13 09:00:11;;;;;;;61.63;33.55;;;;;;;19.27;78.85;101234.13;5024408;28;20037;-48
2021/07/13 09:02:36;;;;;;;61.15;33.85;;;;;;;19.31;79.17;101234.03;5023927;28;20093;-49
2021/07/13 09:05:02;;;;;;;64.90;34.33;;;;;;;19.30;79.03;101234.94;5024392;28;20558;-49
2021/07/13 09:07:30;;;;;;;60.08;32.80;;;;;;;19.49;79.23;101243.47;5018668;28;20033;-50
2021/07/13 09:10:03;;;;;;;58.65;31.67;;;;;;;19.69;78.83;101237.81;5024605;28;20067;-50
2021/07/13 09:12:28;;;;;;;62.03;32.95;;;;;;;19.79;78.52;101234.97;5022506;28;20313;-47
2021/07/13 09:14:57;;;;;;;56.75;31.73;;;;;;;19.85;78.04;101233.97;5025901;28;20066;-52
2021/07/13 09:17:32;;;;;;;55.03;31.42;;;;;;;19.82;77.81;101228.75;5024633;28;20083;-48
2021/07/13 09:20:12;;;;;;;56.90;32.40;;;;;;;20.05;77.56;101233.59;5021789;28;21101;-51
2021/07/13 09:22:41;;;;;;;59.63;33.17;;;;;;;19.79;76.92;101237.63;5020848;28;20108;-49
2021/07/13 09:25:23;;;;;;;56.80;32.50;;;;;;;19.85;77.35;101240.16;5019536;28;20033;-49
2021/07/13 09:28:07;;;;;;;57.30;32.35;;;;;;;19.67;77.64;101243.13;5020677;28;20038;-50
2021/07/13 09:30:34;;;;;;;62.17;34.83;;;;;;;19.68;77.87;101239.59;5023312;28;20037;-50
2021/07/13 09:33:34;;;;;;;56.10;32.55;;;;;;;20.11;77.00;101238.78;5022702;28;20447;-49
2021/07/13 09:36:05;;;;;;;60.15;33.05;;;;;;;20.34;76.95;101241.84;5013560;28;20794;-50
2021/07/13 09:38:32;;;;;;;59.30;34.25;;;;;;;20.41;74.62;101239.94;5010937;28;20052;-49
2021/07/13 09:41:17;;;;;;;54.42;32.92;;;;;;;20.60;74.30;101246.59;5019573;28;20061;-52
2021/07/13 09:43:43;;;;;;;56.30;30.40;;;;;;;20.77;74.64;101248.84;5021579;28;20032;-49
2021/07/13 09:46:30;;;;;;;52.15;28.75;;;;;;;20.96;73.07;101234.28;5020894;28;20374;-50
2021/07/13 09:49:18;;;;;;;47.85;28.45;;;;;;;21.28;73.41;101244.16;5025134;28;20036;-50
2021/07/13 09:51:48;;;;;;;50.10;29.33;;;;;;;21.57;72.13;101240.75;5009752;28;20040;-49
2021/07/13 09:54:39;;;;;;;47.95;29.35;;;;;;;21.33;70.92;101237.81;5016322;28;20433;-47
2021/07/13 09:57:24;;;;;;;45.50;27.50;;;;;;;21.22;70.84;101239.00;5008524;28;20031;-52
2021/07/13 09:59:51;;;;;;;45.42;27.17;;;;;;;21.11;72.17;101239.19;5018914;28;20090;-52
2021/07/13 10:02:20;;;;;;;47.05;28.48;;;;;;;21.24;72.36;101239.81;5022583;28;20048;-50
2021/07/13 10:04:48;;;;;;;44.28;27.75;;;;;;;21.27;71.14;101237.97;5017511;28;20530;-48
2021/07/13 10:07:15;;;;;;;49.35;29.67;;;;;;;21.03;71.83;101242.06;5027113;28;20041;-48
2021/07/13 10:09:47;;;;;;;47.95;29.15;;;;;;;21.10;71.44;101240.13;5017437;28;20353;-49
2021/07/13 10:12:14;;;;;;;51.80;29.63;;;;;;;21.31;71.16;101244.06;5022707;28;20234;-48
2021/07/13 10:14:42;;;;;;;46.90;28.40;;;;;;;21.13;70.73;101255.09;5021224;28;20388;-50
2021/07/13 10:17:08;;;;;;;42.40;25.95;;;;;;;21.33;70.79;101244.91;5003796;28;20115;-49
2021/07/13 10:20:00;;;;;;;47.50;28.25;;;;;;;21.59;70.38;101247.75;5019503;28;20029;-50
2021/07/13 10:22:27;;;;;;;41.70;26.55;;;;;;;21.36;70.82;101260.72;5013771;28;20036;-47
2021/07/13 10:24:56;;;;;;;47.85;27.50;;;;;;;20.59;72.06;101260.75;5000598;28;20447;-50
2021/07/13 10:27:36;;;;;;;44.10;25.77;;;;;;;21.04;72.23;101269.44;5021798;28;20285;-51
2021/07/13 10:30:06;;;;;;;42.47;26.08;;;;;;;21.12;70.62;101269.25;5018231;28;20354;-50
2021/07/13 10:32:36;;;;;;;41.97;25.50;;;;;;;21.12;70.50;101264.81;5016336;28;20025;-51
2021/07/13 10:35:04;;;;;;;44.53;25.38;;;;;;;21.23;69.80;101270.75;5026577;28;20119;-49
2021/07/13 10:37:37;;;;;;;44.95;26.35;;;;;;;21.25;70.54;101268.94;5025814;28;20425;-47
2021/07/13 10:40:12;;;;;;;49.05;26.98;;;;;;;21.12;70.93;101263.94;5018967;28;20033;-50
2021/07/13 10:42:48;;;;;;;44.78;26.17;;;;;;;21.20;70.70;101257.59;5019580;28;20022;-51
2021/07/13 10:45:34;;;;;;;43.55;24.70;;;;;;;21.29;69.33;101264.44;5027694;28;20057;-47
2021/07/13 10:48:14;;;;;;;39.88;22.88;;;;;;;21.24;70.86;101269.84;5019047;28;20026;-47
2021/07/13 10:50:46;;;;;;;45.83;26.25;;;;;;;21.05;70.37;101274.69;5009590;28;20021;-50
2021/07/13 10:53:29;;;;;;;36.72;22.75;;;;;;;21.13;70.65;101285.13;5023362;28;20047;-48
2021/07/13 10:56:15;;;;;;;42.25;24.85;;;;;;;20.78;70.21;101285.94;5019818;28;20091;-49
2021/07/13 10:58:45;;;;;;;45.30;25.65;;;;;;;20.38;71.78;101282.38;4996689;28;20488;-49
2021/07/13 11:01:14;;;;;;;43.88;26.30;;;;;;;20.43;72.13;101289.31;4998807;28;20388;-47
2021/07/13 11:03:40;;;;;;;39.13;23.75;;;;;;;20.50;72.16;101284.75;5025366;28;21071;-53
2021/07/13 11:06:10;;;;;;;44.88;26.65;;;;;;;20.48;72.49;101294.53;5018221;28;20449;-48
2021/07/13 11:08:38;;;;;;;44.60;25.42;;;;;;;20.69;71.83;101287.88;5021700;28;20040;-47
2021/07/13 11:11:05;;;;;;;41.38;23.90;;;;;;;20.70;72.50;101300.25;5015965;28;20025;-48